sensor_id;sensor_type;location;lat;lon;timestamp;P1;durP1;ratioP1;P2;durP2;ratioP2
43626;SDS011;29217;52.586;13.442;2023-01-09T00:01:11;13.35;;;7.28;;
43626;SDS011;29217;52.586;13.442;2023-01-09T00:03:42;16.27;;;6.68;;
43626;SDS011;29217;52.586;13.442;2023-01-09T00:06:08;10.25;;;6.43;;
43626;SDS011;29217;52.586;13.442;2023-01-09T00:08:33;11.35;;;6.45;;
43626;SDS011;29217;52.586;13.442;2023-01-09T00:10:59;11.95;;;6.78;;
43626;SDS011;29217;52.586;13.442;2023-01-09T00:13:24;11.95;;;7.20;;
43626;SDS011;29217;52.586;13.442;2023-01-09T00:15:50;15.73;;;7.50;;
43626;SDS011;29217;52.586;13.442;2023-01-09T00:18:15;14.32;;;7.40;;
43626;SDS011;29217;52.586;13.442;2023-01-09T00:20:41;13.80;;;6.90;;
43626;SDS011;29217;52.586;13.442;2023-01-09T00:23:07;11.80;;;6.82;;
43626;SDS011;29217;52.586;13.442;2023-01-09T00:25:32;13.68;;;7.53;;
43626;SDS011;29217;52.586;13.442;2023-01-09T00:27:58;15.25;;;7.57;;
43626;SDS011;29217;52.586;13.442;2023-01-09T00:30:24;18.75;;;8.85;;
43626;SDS011;29217;52.586;13.442;2023-01-09T00:32:49;12.32;;;7.20;;
43626;SDS011;29217;52.586;13.442;2023-01-09T00:35:15;12.40;;;7.13;;
43626;SDS011;29217;52.586;13.442;2023-01-09T00:37:42;15.32;;;7.32;;
43626;SDS011;29217;52.586;13.442;2023-01-09T00:40:08;12.90;;;7.25;;
43626;SDS011;29217;52.586;13.442;2023-01-09T00:42:35;14.10;;;8.18;;
43626;SDS011;29217;52.586;13.442;2023-01-09T00:45:03;14.65;;;8.25;;
43626;SDS011;29217;52.586;13.442;2023-01-09T00:47:35;14.15;;;8.25;;
43626;SDS011;29217;52.586;13.442;2023-01-09T00:50:07;12.32;;;7.28;;
43626;SDS011;29217;52.586;13.442;2023-01-09T00:52:37;15.65;;;7.57;;
43626;SDS011;29217;52.586;13.442;2023-01-09T00:55:04;13.63;;;7.85;;
43626;SDS011;29217;52.586;13.442;2023-01-09T00:57:30;17.75;;;8.70;;
43626;SDS011;29217;52.586;13.442;2023-01-09T00:59:56;15.32;;;8.23;;
43626;SDS011;29217;52.586;13.442;2023-01-09T01:02:23;17.38;;;8.85;;
43626;SDS011;29217;52.586;13.442;2023-01-09T01:04:49;18.50;;;8.23;;
43626;SDS011;29217;52.586;13.442;2023-01-09T01:07:33;17.67;;;8.60;;
43626;SDS011;29217;52.586;13.442;2023-01-09T01:10:09;20.17;;;8.27;;
43626;SDS011;29217;52.586;13.442;2023-01-09T01:12:44;16.67;;;8.00;;
43626;SDS011;29217;52.586;13.442;2023-01-09T01:15:11;14.75;;;7.90;;
43626;SDS011;29217;52.586;13.442;2023-01-09T01:17:38;15.05;;;8.80;;
43626;SDS011;29217;52.586;13.442;2023-01-09T01:20:05;13.73;;;7.97;;
43626;SDS011;29217;52.586;13.442;2023-01-09T01:22:34;15.32;;;8.25;;
43626;SDS011;29217;52.586;13.442;2023-01-09T01:25:00;15.07;;;8.65;;
43626;SDS011;29217;52.586;13.442;2023-01-09T01:27:26;15.52;;;9.00;;
43626;SDS011;29217;52.586;13.442;2023-01-09T01:29:53;13.23;;;7.00;;
43626;SDS011;29217;52.586;13.442;2023-01-09T01:32:18;14.43;;;7.88;;
43626;SDS011;29217;52.586;13.442;2023-01-09T01:34:44;15.82;;;7.88;;
43626;SDS011;29217;52.586;13.442;2023-01-09T01:37:11;13.57;;;7.13;;
43626;SDS011;29217;52.586;13.442;2023-01-09T01:39:36;12.25;;;7.68;;
43626;SDS011;29217;52.586;13.442;2023-01-09T01:42:03;15.20;;;7.63;;
43626;SDS011;29217;52.586;13.442;2023-01-09T01:47:19;16.42;;;7.82;;
43626;SDS011;29217;52.586;13.442;2023-01-09T01:49:48;15.18;;;7.78;;
43626;SDS011;29217;52.586;13.442;2023-01-09T01:52:14;16.40;;;8.10;;
43626;SDS011;29217;52.586;13.442;2023-01-09T01:54:41;16.70;;;8.40;;
43626;SDS011;29217;52.586;13.442;2023-01-09T01:57:07;19.00;;;8.65;;
43626;SDS011;29217;52.586;13.442;2023-01-09T01:59:38;16.45;;;9.13;;
43626;SDS011;29217;52.586;13.442;2023-01-09T02:02:14;16.48;;;8.57;;
43626;SDS011;29217;52.586;13.442;2023-01-09T02:04:42;15.20;;;8.40;;
43626;SDS011;29217;52.586;13.442;2023-01-09T02:07:09;18.35;;;8.43;;
43626;SDS011;29217;52.586;13.442;2023-01-09T02:09:35;16.20;;;8.45;;
43626;SDS011;29217;52.586;13.442;2023-01-09T02:12:12;15.70;;;8.60;;
43626;SDS011;29217;52.586;13.442;2023-01-09T02:14:40;15.27;;;8.43;;
43626;SDS011;29217;52.586;13.442;2023-01-09T02:17:12;17.25;;;7.63;;
43626;SDS011;29217;52.586;13.442;2023-01-09T02:23:33;13.93;;;7.80;;
43626;SDS011;29217;52.586;13.442;2023-01-09T02:25:38;15.95;;;7.93;;
43626;SDS011;29217;52.586;13.442;2023-01-09T02:33:29;15.98;;;8.32;;
43626;SDS011;29217;52.586;13.442;2023-01-09T02:36:27;14.20;;;8.25;;
43626;SDS011;29217;52.586;13.442;2023-01-09T02:44:10;21.55;;;10.32;;
43626;SDS011;29217;52.586;13.442;2023-01-09T02:46:35;20.13;;;10.23;;
43626;SDS011;29217;52.586;13.442;2023-01-09T02:49:01;19.83;;;10.05;;
43626;SDS011;29217;52.586;13.442;2023-01-09T02:51:31;21.90;;;10.23;;
43626;SDS011;29217;52.586;13.442;2023-01-09T02:56:50;28.02;;;10.57;;
43626;SDS011;29217;52.586;13.442;2023-01-09T02:59:38;24.90;;;10.75;;
43626;SDS011;29217;52.586;13.442;2023-01-09T03:02:27;21.80;;;11.35;;
43626;SDS011;29217;52.586;13.442;2023-01-09T03:05:09;21.25;;;10.70;;
43626;SDS011;29217;52.586;13.442;2023-01-09T03:07:41;21.48;;;10.88;;
43626;SDS011;29217;52.586;13.442;2023-01-09T03:10:21;19.70;;;10.05;;
43626;SDS011;29217;52.586;13.442;2023-01-09T03:12:54;21.63;;;10.32;;
43626;SDS011;29217;52.586;13.442;2023-01-09T03:15:23;22.10;;;10.85;;
43626;SDS011;29217;52.586;13.442;2023-01-09T03:17:52;18.77;;;9.85;;
43626;SDS011;29217;52.586;13.442;2023-01-09T03:20:20;18.20;;;9.55;;
43626;SDS011;29217;52.586;13.442;2023-01-09T03:23:01;19.75;;;10.80;;
43626;SDS011;29217;52.586;13.442;2023-01-09T03:25:28;17.42;;;9.55;;
43626;SDS011;29217;52.586;13.442;2023-01-09T03:27:56;19.63;;;9.57;;
43626;SDS011;29217;52.586;13.442;2023-01-09T03:30:28;18.33;;;9.95;;
43626;SDS011;29217;52.586;13.442;2023-01-09T03:32:55;19.08;;;9.57;;
43626;SDS011;29217;52.586;13.442;2023-01-09T03:35:21;19.73;;;9.35;;
43626;SDS011;29217;52.586;13.442;2023-01-09T03:37:47;17.13;;;9.07;;
43626;SDS011;29217;52.586;13.442;2023-01-09T03:40:13;17.88;;;9.25;;
43626;SDS011;29217;52.586;13.442;2023-01-09T03:42:39;17.25;;;8.98;;
43626;SDS011;29217;52.586;13.442;2023-01-09T03:45:05;21.30;;;10.77;;
43626;SDS011;29217;52.586;13.442;2023-01-09T03:47:31;19.90;;;10.10;;
43626;SDS011;29217;52.586;13.442;2023-01-09T03:49:56;20.67;;;10.02;;
43626;SDS011;29217;52.586;13.442;2023-01-09T03:52:22;23.42;;;11.30;;
43626;SDS011;29217;52.586;13.442;2023-01-09T03:54:47;24.80;;;11.98;;
43626;SDS011;29217;52.586;13.442;2023-01-09T03:57:13;23.58;;;12.18;;
43626;SDS011;29217;52.586;13.442;2023-01-09T03:59:39;25.58;;;13.05;;
43626;SDS011;29217;52.586;13.442;2023-01-09T04:02:05;44.53;;;18.80;;
43626;SDS011;29217;52.586;13.442;2023-01-09T04:04:30;34.35;;;17.30;;
43626;SDS011;29217;52.586;13.442;2023-01-09T04:06:56;32.33;;;15.55;;
43626;SDS011;29217;52.586;13.442;2023-01-09T04:09:22;35.67;;;15.20;;
43626;SDS011;29217;52.586;13.442;2023-01-09T04:11:47;31.23;;;15.10;;
43626;SDS011;29217;52.586;13.442;2023-01-09T04:14:13;28.88;;;14.15;;
43626;SDS011;29217;52.586;13.442;2023-01-09T04:16:39;29.63;;;15.38;;
43626;SDS011;29217;52.586;13.442;2023-01-09T04:19:04;34.28;;;15.32;;
43626;SDS011;29217;52.586;13.442;2023-01-09T04:21:30;34.63;;;14.48;;
43626;SDS011;29217;52.586;13.442;2023-01-09T04:23:56;28.83;;;13.70;;
43626;SDS011;29217;52.586;13.442;2023-01-09T04:26:21;26.65;;;12.65;;
43626;SDS011;29217;52.586;13.442;2023-01-09T04:28:47;21.17;;;11.55;;
43626;SDS011;29217;52.586;13.442;2023-01-09T04:31:12;21.27;;;11.45;;
43626;SDS011;29217;52.586;13.442;2023-01-09T04:33:38;21.75;;;11.05;;
43626;SDS011;29217;52.586;13.442;2023-01-09T04:36:04;18.85;;;10.65;;
43626;SDS011;29217;52.586;13.442;2023-01-09T04:38:30;22.23;;;11.75;;
43626;SDS011;29217;52.586;13.442;2023-01-09T04:40:56;20.65;;;11.73;;
43626;SDS011;29217;52.586;13.442;2023-01-09T04:43:22;18.67;;;10.70;;
43626;SDS011;29217;52.586;13.442;2023-01-09T04:45:47;22.83;;;11.02;;
43626;SDS011;29217;52.586;13.442;2023-01-09T04:48:13;18.98;;;10.70;;
43626;SDS011;29217;52.586;13.442;2023-01-09T04:50:39;21.52;;;11.55;;
43626;SDS011;29217;52.586;13.442;2023-01-09T04:53:04;21.67;;;11.32;;
43626;SDS011;29217;52.586;13.442;2023-01-09T04:55:30;20.25;;;11.20;;
43626;SDS011;29217;52.586;13.442;2023-01-09T04:57:56;23.77;;;11.77;;
43626;SDS011;29217;52.586;13.442;2023-01-09T05:00:22;21.10;;;11.55;;
43626;SDS011;29217;52.586;13.442;2023-01-09T05:02:48;22.88;;;11.38;;
43626;SDS011;29217;52.586;13.442;2023-01-09T05:05:13;27.85;;;10.63;;
43626;SDS011;29217;52.586;13.442;2023-01-09T05:07:39;24.30;;;11.88;;
43626;SDS011;29217;52.586;13.442;2023-01-09T05:10:04;24.67;;;11.27;;
43626;SDS011;29217;52.586;13.442;2023-01-09T05:12:31;23.52;;;12.10;;
43626;SDS011;29217;52.586;13.442;2023-01-09T05:14:58;23.52;;;11.70;;
43626;SDS011;29217;52.586;13.442;2023-01-09T05:17:24;24.23;;;11.00;;
43626;SDS011;29217;52.586;13.442;2023-01-09T05:19:50;23.90;;;12.18;;
43626;SDS011;29217;52.586;13.442;2023-01-09T05:22:15;18.92;;;10.68;;
43626;SDS011;29217;52.586;13.442;2023-01-09T05:24:41;22.58;;;11.18;;
43626;SDS011;29217;52.586;13.442;2023-01-09T05:27:07;28.05;;;11.68;;
43626;SDS011;29217;52.586;13.442;2023-01-09T05:29:32;17.35;;;10.02;;
43626;SDS011;29217;52.586;13.442;2023-01-09T05:31:58;23.25;;;11.40;;
43626;SDS011;29217;52.586;13.442;2023-01-09T05:34:23;18.05;;;10.10;;
43626;SDS011;29217;52.586;13.442;2023-01-09T05:36:49;20.10;;;10.70;;
43626;SDS011;29217;52.586;13.442;2023-01-09T05:39:15;22.08;;;11.15;;
43626;SDS011;29217;52.586;13.442;2023-01-09T05:41:40;21.83;;;10.65;;
43626;SDS011;29217;52.586;13.442;2023-01-09T05:44:06;21.67;;;10.43;;
43626;SDS011;29217;52.586;13.442;2023-01-09T05:46:31;19.65;;;10.07;;
43626;SDS011;29217;52.586;13.442;2023-01-09T05:48:57;20.27;;;10.10;;
43626;SDS011;29217;52.586;13.442;2023-01-09T05:51:23;20.67;;;10.30;;
43626;SDS011;29217;52.586;13.442;2023-01-09T05:53:48;20.52;;;10.77;;
43626;SDS011;29217;52.586;13.442;2023-01-09T05:56:14;18.50;;;10.20;;
43626;SDS011;29217;52.586;13.442;2023-01-09T05:58:40;18.42;;;9.32;;
43626;SDS011;29217;52.586;13.442;2023-01-09T06:01:06;22.13;;;10.70;;
43626;SDS011;29217;52.586;13.442;2023-01-09T06:03:31;22.55;;;11.43;;
43626;SDS011;29217;52.586;13.442;2023-01-09T06:05:57;22.58;;;11.10;;
43626;SDS011;29217;52.586;13.442;2023-01-09T06:08:23;24.85;;;10.90;;
43626;SDS011;29217;52.586;13.442;2023-01-09T06:10:48;19.27;;;9.98;;
43626;SDS011;29217;52.586;13.442;2023-01-09T06:13:14;21.95;;;11.45;;
43626;SDS011;29217;52.586;13.442;2023-01-09T06:15:39;21.58;;;11.27;;
43626;SDS011;29217;52.586;13.442;2023-01-09T06:18:05;18.85;;;10.60;;
43626;SDS011;29217;52.586;13.442;2023-01-09T06:20:31;18.05;;;9.68;;
43626;SDS011;29217;52.586;13.442;2023-01-09T06:22:57;21.98;;;11.43;;
43626;SDS011;29217;52.586;13.442;2023-01-09T06:25:23;22.58;;;10.85;;
43626;SDS011;29217;52.586;13.442;2023-01-09T06:27:48;24.40;;;11.60;;
43626;SDS011;29217;52.586;13.442;2023-01-09T06:30:16;19.77;;;10.18;;
43626;SDS011;29217;52.586;13.442;2023-01-09T06:32:42;21.30;;;10.80;;
43626;SDS011;29217;52.586;13.442;2023-01-09T06:35:08;19.73;;;9.80;;
43626;SDS011;29217;52.586;13.442;2023-01-09T06:37:34;23.60;;;11.73;;
43626;SDS011;29217;52.586;13.442;2023-01-09T06:39:59;25.25;;;11.75;;
43626;SDS011;29217;52.586;13.442;2023-01-09T06:42:25;22.20;;;11.60;;
43626;SDS011;29217;52.586;13.442;2023-01-09T06:44:51;26.48;;;12.48;;
43626;SDS011;29217;52.586;13.442;2023-01-09T06:47:16;24.70;;;12.25;;
43626;SDS011;29217;52.586;13.442;2023-01-09T06:49:42;26.20;;;12.00;;
43626;SDS011;29217;52.586;13.442;2023-01-09T06:52:07;25.20;;;11.68;;
43626;SDS011;29217;52.586;13.442;2023-01-09T06:54:33;23.13;;;12.02;;
43626;SDS011;29217;52.586;13.442;2023-01-09T06:56:59;25.02;;;12.48;;
43626;SDS011;29217;52.586;13.442;2023-01-09T06:59:25;25.80;;;12.35;;
43626;SDS011;29217;52.586;13.442;2023-01-09T07:01:51;27.38;;;11.27;;
43626;SDS011;29217;52.586;13.442;2023-01-09T07:04:17;26.33;;;13.27;;
43626;SDS011;29217;52.586;13.442;2023-01-09T07:06:45;30.83;;;12.23;;
43626;SDS011;29217;52.586;13.442;2023-01-09T07:09:11;24.02;;;10.77;;
43626;SDS011;29217;52.586;13.442;2023-01-09T07:11:37;30.25;;;12.70;;
43626;SDS011;29217;52.586;13.442;2023-01-09T07:14:03;25.40;;;12.50;;
43626;SDS011;29217;52.586;13.442;2023-01-09T07:16:30;24.60;;;12.88;;
43626;SDS011;29217;52.586;13.442;2023-01-09T07:18:56;22.02;;;11.25;;
43626;SDS011;29217;52.586;13.442;2023-01-09T07:21:22;26.23;;;12.18;;
43626;SDS011;29217;52.586;13.442;2023-01-09T07:23:47;25.90;;;12.13;;
43626;SDS011;29217;52.586;13.442;2023-01-09T07:26:13;21.55;;;11.55;;
43626;SDS011;29217;52.586;13.442;2023-01-09T07:28:39;26.80;;;11.75;;
43626;SDS011;29217;52.586;13.442;2023-01-09T07:31:04;21.58;;;11.13;;
43626;SDS011;29217;52.586;13.442;2023-01-09T07:33:31;23.17;;;11.20;;
43626;SDS011;29217;52.586;13.442;2023-01-09T07:35:58;23.25;;;11.82;;
43626;SDS011;29217;52.586;13.442;2023-01-09T07:38:23;23.27;;;11.25;;
43626;SDS011;29217;52.586;13.442;2023-01-09T07:40:49;27.13;;;12.05;;
43626;SDS011;29217;52.586;13.442;2023-01-09T07:43:15;24.67;;;11.88;;
43626;SDS011;29217;52.586;13.442;2023-01-09T07:45:40;23.63;;;11.38;;
43626;SDS011;29217;52.586;13.442;2023-01-09T07:48:06;26.35;;;11.80;;
43626;SDS011;29217;52.586;13.442;2023-01-09T07:50:32;22.15;;;10.73;;
43626;SDS011;29217;52.586;13.442;2023-01-09T07:52:57;25.80;;;11.93;;
43626;SDS011;29217;52.586;13.442;2023-01-09T07:55:23;19.30;;;10.73;;
43626;SDS011;29217;52.586;13.442;2023-01-09T07:57:49;23.65;;;11.70;;
43626;SDS011;29217;52.586;13.442;2023-01-09T08:00:15;25.50;;;11.52;;
43626;SDS011;29217;52.586;13.442;2023-01-09T08:02:41;21.55;;;11.00;;
43626;SDS011;29217;52.586;13.442;2023-01-09T08:05:07;25.95;;;10.85;;
43626;SDS011;29217;52.586;13.442;2023-01-09T08:07:37;23.05;;;11.38;;
43626;SDS011;29217;52.586;13.442;2023-01-09T08:10:03;26.38;;;11.68;;
43626;SDS011;29217;52.586;13.442;2023-01-09T08:12:29;21.67;;;11.15;;
43626;SDS011;29217;52.586;13.442;2023-01-09T08:14:54;23.55;;;11.23;;
43626;SDS011;29217;52.586;13.442;2023-01-09T08:17:20;23.45;;;11.27;;
43626;SDS011;29217;52.586;13.442;2023-01-09T08:19:45;24.27;;;12.02;;
43626;SDS011;29217;52.586;13.442;2023-01-09T08:22:11;23.73;;;11.32;;
43626;SDS011;29217;52.586;13.442;2023-01-09T08:24:36;23.20;;;12.00;;
43626;SDS011;29217;52.586;13.442;2023-01-09T08:27:02;21.55;;;11.15;;
43626;SDS011;29217;52.586;13.442;2023-01-09T08:29:28;21.85;;;11.05;;
43626;SDS011;29217;52.586;13.442;2023-01-09T08:31:54;28.15;;;11.80;;
43626;SDS011;29217;52.586;13.442;2023-01-09T08:34:20;21.50;;;11.25;;
43626;SDS011;29217;52.586;13.442;2023-01-09T08:36:45;21.70;;;11.35;;
43626;SDS011;29217;52.586;13.442;2023-01-09T08:39:11;24.08;;;12.32;;
43626;SDS011;29217;52.586;13.442;2023-01-09T08:41:37;27.13;;;11.73;;
43626;SDS011;29217;52.586;13.442;2023-01-09T08:44:21;27.90;;;14.50;;
43626;SDS011;29217;52.586;13.442;2023-01-09T08:47:05;22.67;;;10.43;;
43626;SDS011;29217;52.586;13.442;2023-01-09T08:49:34;23.50;;;12.07;;
43626;SDS011;29217;52.586;13.442;2023-01-09T08:52:01;28.65;;;12.60;;
43626;SDS011;29217;52.586;13.442;2023-01-09T08:54:28;25.90;;;12.30;;
43626;SDS011;29217;52.586;13.442;2023-01-09T08:56:53;26.40;;;11.13;;
43626;SDS011;29217;52.586;13.442;2023-01-09T08:59:19;27.17;;;11.73;;
43626;SDS011;29217;52.586;13.442;2023-01-09T09:01:44;25.33;;;11.80;;
43626;SDS011;29217;52.586;13.442;2023-01-09T09:04:10;30.20;;;12.15;;
43626;SDS011;29217;52.586;13.442;2023-01-09T09:06:35;23.90;;;12.02;;
43626;SDS011;29217;52.586;13.442;2023-01-09T09:09:01;31.17;;;13.13;;
43626;SDS011;29217;52.586;13.442;2023-01-09T09:11:28;27.90;;;12.15;;
43626;SDS011;29217;52.586;13.442;2023-01-09T09:13:54;25.63;;;12.57;;
43626;SDS011;29217;52.586;13.442;2023-01-09T09:16:20;30.92;;;16.40;;
43626;SDS011;29217;52.586;13.442;2023-01-09T09:18:46;27.20;;;11.80;;
43626;SDS011;29217;52.586;13.442;2023-01-09T09:21:11;24.75;;;12.43;;
43626;SDS011;29217;52.586;13.442;2023-01-09T09:23:37;24.20;;;10.70;;
43626;SDS011;29217;52.586;13.442;2023-01-09T09:26:03;21.55;;;11.75;;
43626;SDS011;29217;52.586;13.442;2023-01-09T09:28:29;22.63;;;11.60;;
43626;SDS011;29217;52.586;13.442;2023-01-09T09:30:54;24.42;;;11.43;;
43626;SDS011;29217;52.586;13.442;2023-01-09T09:33:20;21.45;;;10.68;;
43626;SDS011;29217;52.586;13.442;2023-01-09T09:35:45;21.65;;;10.60;;
43626;SDS011;29217;52.586;13.442;2023-01-09T09:38:11;23.45;;;11.02;;
43626;SDS011;29217;52.586;13.442;2023-01-09T09:46:20;21.17;;;10.38;;
43626;SDS011;29217;52.586;13.442;2023-01-09T09:49:01;25.15;;;12.13;;
43626;SDS011;29217;52.586;13.442;2023-01-09T09:52:01;23.35;;;11.32;;
43626;SDS011;29217;52.586;13.442;2023-01-09T09:54:33;25.52;;;11.93;;
43626;SDS011;29217;52.586;13.442;2023-01-09T09:57:04;23.58;;;11.25;;
43626;SDS011;29217;52.586;13.442;2023-01-09T09:59:35;24.55;;;10.85;;
43626;SDS011;29217;52.586;13.442;2023-01-09T10:05:08;24.38;;;10.80;;
43626;SDS011;29217;52.586;13.442;2023-01-09T10:07:41;22.52;;;11.07;;
43626;SDS011;29217;52.586;13.442;2023-01-09T10:10:26;23.38;;;11.60;;
43626;SDS011;29217;52.586;13.442;2023-01-09T10:12:57;24.85;;;10.85;;
43626;SDS011;29217;52.586;13.442;2023-01-09T10:15:43;21.17;;;10.32;;
43626;SDS011;29217;52.586;13.442;2023-01-09T10:18:16;26.13;;;11.20;;
43626;SDS011;29217;52.586;13.442;2023-01-09T10:23:45;22.65;;;10.70;;
43626;SDS011;29217;52.586;13.442;2023-01-09T10:26:42;24.55;;;10.05;;
43626;SDS011;29217;52.586;13.442;2023-01-09T10:35:20;20.40;;;10.57;;
43626;SDS011;29217;52.586;13.442;2023-01-09T10:37:45;19.15;;;8.35;;
43626;SDS011;29217;52.586;13.442;2023-01-09T10:40:19;18.02;;;9.25;;
43626;SDS011;29217;52.586;13.442;2023-01-09T10:42:53;16.52;;;8.20;;
43626;SDS011;29217;52.586;13.442;2023-01-09T10:45:31;16.77;;;8.45;;
43626;SDS011;29217;52.586;13.442;2023-01-09T10:48:03;14.27;;;7.90;;
43626;SDS011;29217;52.586;13.442;2023-01-09T10:50:32;19.25;;;9.00;;
43626;SDS011;29217;52.586;13.442;2023-01-09T10:52:59;15.88;;;7.88;;
43626;SDS011;29217;52.586;13.442;2023-01-09T10:55:40;13.85;;;7.43;;
43626;SDS011;29217;52.586;13.442;2023-01-09T10:58:10;19.70;;;8.30;;
43626;SDS011;29217;52.586;13.442;2023-01-09T11:00:37;13.60;;;7.70;;
43626;SDS011;29217;52.586;13.442;2023-01-09T11:03:04;15.85;;;7.40;;
43626;SDS011;29217;52.586;13.442;2023-01-09T11:05:29;15.57;;;7.93;;
43626;SDS011;29217;52.586;13.442;2023-01-09T11:10:44;12.27;;;7.05;;
43626;SDS011;29217;52.586;13.442;2023-01-09T11:13:21;14.98;;;7.38;;
43626;SDS011;29217;52.586;13.442;2023-01-09T11:16:07;12.50;;;6.95;;
43626;SDS011;29217;52.586;13.442;2023-01-09T11:18:39;12.75;;;7.05;;
43626;SDS011;29217;52.586;13.442;2023-01-09T11:21:36;12.40;;;6.97;;
43626;SDS011;29217;52.586;13.442;2023-01-09T11:26:49;13.13;;;7.03;;
43626;SDS011;29217;52.586;13.442;2023-01-09T11:29:17;10.50;;;6.50;;
43626;SDS011;29217;52.586;13.442;2023-01-09T11:31:54;13.00;;;6.57;;
43626;SDS011;29217;52.586;13.442;2023-01-09T11:34:21;15.55;;;7.18;;
43626;SDS011;29217;52.586;13.442;2023-01-09T11:36:49;10.90;;;6.35;;
43626;SDS011;29217;52.586;13.442;2023-01-09T11:39:36;15.13;;;6.05;;
43626;SDS011;29217;52.586;13.442;2023-01-09T11:42:06;10.45;;;5.95;;
43626;SDS011;29217;52.586;13.442;2023-01-09T11:44:43;11.98;;;6.32;;
43626;SDS011;29217;52.586;13.442;2023-01-09T11:47:22;9.23;;;5.57;;
43626;SDS011;29217;52.586;13.442;2023-01-09T11:49:49;11.40;;;6.32;;
43626;SDS011;29217;52.586;13.442;2023-01-09T11:52:18;11.60;;;6.07;;
43626;SDS011;29217;52.586;13.442;2023-01-09T11:57:16;7.65;;;5.05;;
43626;SDS011;29217;52.586;13.442;2023-01-09T11:59:42;10.23;;;5.57;;
43626;SDS011;29217;52.586;13.442;2023-01-09T12:15:33;13.10;;;4.90;;
43626;SDS011;29217;52.586;13.442;2023-01-09T12:18:30;7.90;;;4.05;;
43626;SDS011;29217;52.586;13.442;2023-01-09T12:23:45;6.97;;;3.50;;
43626;SDS011;29217;52.586;13.442;2023-01-09T12:26:33;5.40;;;2.97;;
43626;SDS011;29217;52.586;13.442;2023-01-09T12:45:32;9.13;;;3.13;;
43626;SDS011;29217;52.586;13.442;2023-01-09T12:53:30;4.47;;;2.47;;
43626;SDS011;29217;52.586;13.442;2023-01-09T12:56:22;7.13;;;2.67;;
43626;SDS011;29217;52.586;13.442;2023-01-09T12:58:55;4.65;;;2.70;;
43626;SDS011;29217;52.586;13.442;2023-01-09T13:01:52;4.32;;;2.75;;
43626;SDS011;29217;52.586;13.442;2023-01-09T13:04:18;4.68;;;2.28;;
43626;SDS011;29217;52.586;13.442;2023-01-09T13:06:53;7.00;;;2.35;;
43626;SDS011;29217;52.586;13.442;2023-01-09T13:09:24;6.18;;;2.58;;
43626;SDS011;29217;52.586;13.442;2023-01-09T13:12:11;5.20;;;2.45;;
43626;SDS011;29217;52.586;13.442;2023-01-09T13:22:55;5.22;;;2.53;;
43626;SDS011;29217;52.586;13.442;2023-01-09T13:25:29;4.20;;;2.55;;
43626;SDS011;29217;52.586;13.442;2023-01-09T13:28:13;4.28;;;2.28;;
43626;SDS011;29217;52.586;13.442;2023-01-09T13:33:36;9.90;;;2.35;;
43626;SDS011;29217;52.586;13.442;2023-01-09T13:36:05;7.80;;;2.70;;
43626;SDS011;29217;52.586;13.442;2023-01-09T13:38:31;6.97;;;2.33;;
43626;SDS011;29217;52.586;13.442;2023-01-09T13:41:14;4.10;;;2.25;;
43626;SDS011;29217;52.586;13.442;2023-01-09T13:44:01;6.45;;;2.60;;
43626;SDS011;29217;52.586;13.442;2023-01-09T13:46:47;6.30;;;2.65;;
43626;SDS011;29217;52.586;13.442;2023-01-09T13:52:01;8.38;;;3.13;;
43626;SDS011;29217;52.586;13.442;2023-01-09T14:00:45;9.07;;;4.03;;
43626;SDS011;29217;52.586;13.442;2023-01-09T14:07:48;3.63;;;2.53;;
43626;SDS011;29217;52.586;13.442;2023-01-09T14:10:36;14.35;;;4.03;;
43626;SDS011;29217;52.586;13.442;2023-01-09T14:13:23;4.35;;;2.50;;
43626;SDS011;29217;52.586;13.442;2023-01-09T14:16:07;3.33;;;2.30;;
43626;SDS011;29217;52.586;13.442;2023-01-09T14:21:41;5.40;;;2.78;;
43626;SDS011;29217;52.586;13.442;2023-01-09T14:24:20;3.55;;;2.47;;
43626;SDS011;29217;52.586;13.442;2023-01-09T14:26:49;8.02;;;3.47;;
43626;SDS011;29217;52.586;13.442;2023-01-09T14:34:56;5.43;;;2.03;;
43626;SDS011;29217;52.586;13.442;2023-01-09T14:37:27;13.07;;;4.95;;
43626;SDS011;29217;52.586;13.442;2023-01-09T14:39:54;8.23;;;2.35;;
43626;SDS011;29217;52.586;13.442;2023-01-09T14:42:23;4.90;;;2.72;;
43626;SDS011;29217;52.586;13.442;2023-01-09T14:44:52;5.03;;;2.45;;
43626;SDS011;29217;52.586;13.442;2023-01-09T14:52:48;3.33;;;2.33;;
43626;SDS011;29217;52.586;13.442;2023-01-09T14:55:24;6.07;;;1.95;;
43626;SDS011;29217;52.586;13.442;2023-01-09T14:57:54;3.50;;;2.30;;
43626;SDS011;29217;52.586;13.442;2023-01-09T15:00:21;4.18;;;2.50;;
43626;SDS011;29217;52.586;13.442;2023-01-09T15:02:47;2.95;;;2.08;;
43626;SDS011;29217;52.586;13.442;2023-01-09T15:05:17;5.18;;;2.17;;
43626;SDS011;29217;52.586;13.442;2023-01-09T15:07:49;4.75;;;2.03;;
43626;SDS011;29217;52.586;13.442;2023-01-09T15:10:27;3.33;;;2.10;;
43626;SDS011;29217;52.586;13.442;2023-01-09T15:12:54;5.25;;;2.28;;
43626;SDS011;29217;52.586;13.442;2023-01-09T15:15:22;4.93;;;2.40;;
43626;SDS011;29217;52.586;13.442;2023-01-09T15:17:59;3.17;;;2.20;;
43626;SDS011;29217;52.586;13.442;2023-01-09T15:20:29;4.15;;;2.22;;
43626;SDS011;29217;52.586;13.442;2023-01-09T15:22:57;4.15;;;2.42;;
43626;SDS011;29217;52.586;13.442;2023-01-09T15:25:33;6.10;;;2.78;;
43626;SDS011;29217;52.586;13.442;2023-01-09T15:28:18;5.78;;;3.60;;
43626;SDS011;29217;52.586;13.442;2023-01-09T15:30:52;6.22;;;3.25;;
43626;SDS011;29217;52.586;13.442;2023-01-09T15:33:20;6.40;;;3.15;;
43626;SDS011;29217;52.586;13.442;2023-01-09T15:35:47;8.30;;;3.28;;
43626;SDS011;29217;52.586;13.442;2023-01-09T15:38:16;4.68;;;2.85;;
43626;SDS011;29217;52.586;13.442;2023-01-09T15:40:52;3.85;;;2.80;;
43626;SDS011;29217;52.586;13.442;2023-01-09T15:43:21;8.63;;;3.13;;
43626;SDS011;29217;52.586;13.442;2023-01-09T15:45:47;3.88;;;2.28;;
43626;SDS011;29217;52.586;13.442;2023-01-09T15:50:44;4.80;;;2.42;;
43626;SDS011;29217;52.586;13.442;2023-01-09T15:53:12;3.95;;;2.70;;
43626;SDS011;29217;52.586;13.442;2023-01-09T15:55:39;7.03;;;2.25;;
43626;SDS011;29217;52.586;13.442;2023-01-09T15:58:22;3.88;;;1.85;;
43626;SDS011;29217;52.586;13.442;2023-01-09T16:00:53;4.28;;;2.83;;
43626;SDS011;29217;52.586;13.442;2023-01-09T16:03:20;9.48;;;3.03;;
43626;SDS011;29217;52.586;13.442;2023-01-09T16:06:08;12.88;;;3.50;;
43626;SDS011;29217;52.586;13.442;2023-01-09T16:08:36;10.68;;;5.03;;
43626;SDS011;29217;52.586;13.442;2023-01-09T16:11:06;7.50;;;4.20;;
43626;SDS011;29217;52.586;13.442;2023-01-09T16:13:41;8.80;;;3.53;;
43626;SDS011;29217;52.586;13.442;2023-01-09T16:16:08;9.90;;;3.38;;
43626;SDS011;29217;52.586;13.442;2023-01-09T16:18:35;4.90;;;2.95;;
43626;SDS011;29217;52.586;13.442;2023-01-09T16:21:03;4.43;;;2.55;;
43626;SDS011;29217;52.586;13.442;2023-01-09T16:23:31;4.80;;;2.53;;
43626;SDS011;29217;52.586;13.442;2023-01-09T16:26:02;7.80;;;3.10;;
43626;SDS011;29217;52.586;13.442;2023-01-09T16:28:28;4.80;;;2.75;;
43626;SDS011;29217;52.586;13.442;2023-01-09T16:30:55;3.42;;;2.28;;
43626;SDS011;29217;52.586;13.442;2023-01-09T16:33:23;6.80;;;2.53;;
43626;SDS011;29217;52.586;13.442;2023-01-09T16:35:49;6.13;;;2.63;;